Time;durP1;ratioP1;P1;durP2;ratioP2;P2;SDS_P1;SDS_P2;PMS_P1;PMS_P2;Temp;Humidity;BMP_temperature;BMP_pressure;BME280_temperature;BME280_humidity;BME280_pressure;Samples;Min_cycle;Max_cycle;Signal;HPM_P1;HPM_P2
2022/07/10 00:01:06;;;;;;;17.15;8.00;;;;;;;17.67;89.88;99308.38;5104142;28;20020;-61
2022/07/10 00:03:32;;;;;;;9.90;5.80;;;;;;;17.32;89.68;99287.66;5119372;28;20019;-62
2022/07/10 00:05:57;;;;;;;6.28;4.57;;;;;;;17.35;90.05;99266.53;5112331;28;20321;-62
2022/07/10 00:08:23;;;;;;;9.32;5.93;;;;;;;17.61;91.42;99246.72;5109252;28;20271;-61
2022/07/10 00:10:49;;;;;;;6.85;4.78;;;;;;;17.42;90.04;99232.06;5107608;28;20043;-62
2022/07/10 00:13:14;;;;;;;7.68;4.90;;;;;;;17.42;90.44;99221.59;5111082;28;20051;-62
2022/07/10 00:15:40;;;;;;;7.60;4.95;;;;;;;17.04;90.40;99218.50;5103244;28;20028;-61
2022/07/10 00:18:05;;;;;;;7.75;4.05;;;;;;;16.88;87.91;99195.00;5103353;28;20020;-62
2022/07/10 00:20:32;;;;;;;5.38;4.30;;;;;;;16.97;90.79;99183.16;5103395;28;20051;-61
2022/07/10 00:22:57;;;;;;;6.35;5.10;;;;;;;17.07;93.33;99161.66;5103423;28;20020;-62
2022/07/10 00:25:23;;;;;;;6.57;5.70;;;;;;;17.16;93.86;99148.94;5103073;28;20502;-61
2022/07/10 00:27:48;;;;;;;10.00;6.55;;;;;;;17.09;93.90;99151.09;5121774;28;20023;-62
2022/07/10 00:30:14;;;;;;;6.32;5.70;;;;;;;17.01;91.53;99148.88;5109732;28;20024;-62
2022/07/10 00:32:39;;;;;;;8.43;5.78;;;;;;;17.18;93.52;99136.63;5103263;28;20051;-62
2022/07/10 00:35:06;;;;;;;6.70;5.63;;;;;;;17.21;94.24;99129.44;5103576;28;20027;-62
2022/07/10 00:37:32;;;;;;;9.65;7.43;;;;;;;17.11;94.54;99123.03;5103835;28;20081;-62
2022/07/10 00:39:58;;;;;;;6.78;6.07;;;;;;;17.18;94.01;99129.59;5123383;28;20019;-62
2022/07/10 00:42:23;;;;;;;9.48;7.75;;;;;;;17.29;94.56;99125.53;5108515;28;20020;-62
2022/07/10 00:44:49;;;;;;;7.40;6.70;;;;;;;17.35;94.99;99133.88;5113221;28;20128;-62
2022/07/10 00:47:17;;;;;;;7.32;6.60;;;;;;;17.32;95.39;99146.31;5118225;28;20028;-61
2022/07/10 00:49:43;;;;;;;8.30;6.80;;;;;;;17.41;95.62;99148.38;5103158;28;20032;-62
2022/07/10 00:52:12;;;;;;;8.38;7.10;;;;;;;17.37;95.42;99139.88;5103116;28;20073;-62
2022/07/10 00:54:39;;;;;;;8.32;6.90;;;;;;;17.29;95.84;99142.09;5111349;28;20020;-62
2022/07/10 00:57:07;;;;;;;9.52;8.10;;;;;;;17.06;96.79;99081.47;5102724;28;20046;-62
2022/07/10 00:59:34;;;;;;;8.50;7.43;;;;;;;17.45;96.91;99125.50;5102886;28;20055;-62
2022/07/10 01:02:02;;;;;;;8.63;6.40;;;;;;;17.52;97.01;99106.69;5102982;28;20032;-61
2022/07/10 01:04:27;;;;;;;9.43;7.15;;;;;;;17.60;96.52;99108.88;5102816;28;20317;-61
2022/07/10 01:06:53;;;;;;;7.82;7.00;;;;;;;17.59;96.16;99115.88;5103152;28;20047;-62
2022/07/10 01:09:19;;;;;;;8.63;5.90;;;;;;;17.56;94.65;99108.19;5102786;28;20028;-60
2022/07/10 01:11:45;;;;;;;6.63;6.03;;;;;;;17.63;94.59;99108.69;5112545;28;20035;-59
2022/07/10 01:14:11;;;;;;;7.57;6.80;;;;;;;17.66;94.26;99105.88;5123556;28;20208;-61
2022/07/10 01:16:37;;;;;;;11.63;7.32;;;;;;;17.65;95.58;99106.81;5127290;27;20015;-60
2022/07/10 01:19:03;;;;;;;7.85;7.05;;;;;;;17.59;95.83;99104.56;5106860;28;20036;-60
2022/07/10 01:21:31;;;;;;;8.20;7.10;;;;;;;17.30;95.69;99049.56;5106785;28;20039;-60
2022/07/10 01:23:57;;;;;;;7.68;6.88;;;;;;;17.67;95.12;99101.47;5117847;28;20039;-60
2022/07/10 01:26:23;;;;;;;6.88;6.25;;;;;;;17.76;94.84;99098.31;5127180;28;20023;-61
2022/07/10 01:28:53;;;;;;;9.55;8.63;;;;;;;17.48;95.37;99062.47;5124267;28;20028;-60
2022/07/10 01:31:28;;;;;;;7.80;7.18;;;;;;;17.81;94.40;99111.13;5106968;28;20032;-60
2022/07/10 01:33:55;;;;;;;8.10;7.30;;;;;;;17.55;94.06;99066.41;5122239;28;20122;-60
2022/07/10 01:36:22;;;;;;;8.45;6.80;;;;;;;17.88;94.28;99105.41;5109718;28;20044;-60
2022/07/10 01:38:50;;;;;;;8.15;7.38;;;;;;;17.86;95.08;99109.06;5117712;28;20066;-61
2022/07/10 01:41:16;;;;;;;8.75;7.95;;;;;;;17.86;95.69;99103.84;5126611;28;20024;-61
2022/07/10 01:43:43;;;;;;;10.52;9.50;;;;;;;17.85;96.05;99097.72;5126485;28;20077;-61
2022/07/10 01:46:10;;;;;;;9.45;8.10;;;;;;;17.94;96.58;99101.59;5106154;28;20031;-61
2022/07/10 01:48:39;;;;;;;8.93;7.30;;;;;;;17.95;94.62;99098.03;5122625;28;20085;-61
2022/07/10 01:51:06;;;;;;;8.35;7.60;;;;;;;17.90;94.70;99093.09;5126914;28;20051;-61
2022/07/10 01:53:32;;;;;;;9.20;8.38;;;;;;;17.95;95.80;99090.19;5119261;28;20020;-60
2022/07/10 01:56:00;;;;;;;10.02;8.60;;;;;;;17.90;96.32;99079.09;5106091;28;20092;-60
2022/07/10 01:58:26;;;;;;;11.07;9.25;;;;;;;17.96;96.65;99080.53;5105936;28;20031;-60
2022/07/10 02:00:51;;;;;;;10.05;8.05;;;;;;;17.91;96.15;99086.06;5105425;28;20214;-60
2022/07/10 02:06:01;;;;;;;7.72;7.03;;;;;;;18.01;94.69;99087.19;5105918;28;20027;-60
2022/07/10 02:08:27;;;;;;;8.52;7.72;;;;;;;18.13;94.59;99089.97;5105662;28;20035;-60
2022/07/10 02:10:52;;;;;;;9.10;8.35;;;;;;;18.10;95.08;99086.63;5105852;28;20069;-59
2022/07/10 02:13:20;;;;;;;9.38;8.48;;;;;;;18.09;95.93;99084.09;5105489;28;20054;-60
2022/07/10 02:16:05;;;;;;;9.55;8.75;;;;;;;18.09;95.55;99081.47;5104724;28;20024;-60
2022/07/10 02:18:32;;;;;;;10.98;8.68;;;;;;;18.12;95.59;99091.75;5105700;28;20070;-61
2022/07/10 02:20:57;;;;;;;9.40;8.50;;;;;;;18.10;95.69;99089.25;5105172;28;20028;-60
2022/07/10 02:23:23;;;;;;;11.27;8.10;;;;;;;17.99;94.02;99093.47;5110890;28;20091;-61
2022/07/10 02:25:49;;;;;;;8.85;7.95;;;;;;;17.96;94.75;99098.88;5125065;27;20027;-60
2022/07/10 02:28:15;;;;;;;10.30;8.20;;;;;;;17.86;95.46;99099.44;5125798;27;20321;-60
2022/07/10 02:30:42;;;;;;;9.05;7.82;;;;;;;17.70;94.03;99094.28;5125599;28;20031;-59
2022/07/10 02:33:07;;;;;;;9.27;8.25;;;;;;;17.77;94.39;99100.84;5124737;28;20043;-60
2022/07/10 02:35:33;;;;;;;11.07;8.23;;;;;;;17.72;94.68;99096.81;5118666;27;20321;-60
2022/07/10 02:37:59;;;;;;;13.02;8.55;;;;;;;17.81;94.04;99101.47;5109818;28;20032;-60
2022/07/10 02:40:24;;;;;;;9.70;8.30;;;;;;;17.62;94.92;99067.72;5125851;28;20054;-60
2022/07/10 02:42:50;;;;;;;11.48;9.07;;;;;;;17.84;95.09;99105.69;5107631;28;20153;-60
2022/07/10 02:45:16;;;;;;;10.32;9.20;;;;;;;17.70;94.83;99103.91;5104861;28;20027;-60
2022/07/10 02:47:41;;;;;;;10.75;9.65;;;;;;;17.79;95.46;99103.34;5105107;28;20031;-60
2022/07/10 02:50:07;;;;;;;9.98;9.00;;;;;;;17.77;94.80;99100.84;5104986;28;20208;-60
2022/07/10 02:52:33;;;;;;;9.52;8.40;;;;;;;17.72;92.83;99097.63;5104895;28;20032;-60
2022/07/10 02:54:59;;;;;;;9.00;7.85;;;;;;;17.91;93.34;99104.41;5104891;28;20043;-60
2022/07/10 02:57:24;;;;;;;12.15;8.60;;;;;;;18.01;93.67;99113.38;5104790;28;20024;-60
2022/07/10 02:59:51;;;;;;;13.43;8.60;;;;;;;18.19;93.40;99123.69;5114027;28;20030;-60
2022/07/10 03:02:16;;;;;;;10.40;9.00;;;;;;;18.31;93.79;99129.94;5120671;28;20419;-61
2022/07/10 03:04:42;;;;;;;9.10;8.00;;;;;;;18.38;93.74;99136.47;5104776;28;20032;-61
2022/07/10 03:07:07;;;;;;;9.95;7.80;;;;;;;18.33;92.66;99123.66;5104503;28;20054;-60
2022/07/10 03:09:33;;;;;;;8.77;7.88;;;;;;;18.48;93.65;99119.22;5104607;28;20020;-61
2022/07/10 03:12:00;;;;;;;8.43;7.05;;;;;;;18.38;90.39;99100.59;5115037;28;20019;-60
2022/07/10 03:14:26;;;;;;;8.43;7.60;;;;;;;18.67;91.26;99123.28;5100920;28;20024;-61
2022/07/10 03:16:51;;;;;;;9.93;7.15;;;;;;;18.76;91.93;99127.97;5104299;28;20160;-61
2022/07/10 03:19:17;;;;;;;7.40;6.70;;;;;;;18.78;90.78;99131.31;5103928;28;20020;-61
2022/07/10 03:21:43;;;;;;;9.40;7.47;;;;;;;18.68;91.19;99115.31;5104419;28;20020;-61
2022/07/10 03:24:08;;;;;;;7.85;7.05;;;;;;;18.76;90.80;99118.28;5104554;28;20039;-61
2022/07/10 03:26:34;;;;;;;8.98;7.35;;;;;;;18.88;92.30;99126.34;5111065;28;20031;-61
2022/07/10 03:29:00;;;;;;;8.27;7.47;;;;;;;18.97;92.15;99126.59;5122556;28;20067;-61
2022/07/10 03:31:25;;;;;;;9.02;7.50;;;;;;;19.04;92.35;99129.66;5104151;28;20055;-61
2022/07/10 03:33:52;;;;;;;9.05;7.32;;;;;;;19.10;92.54;99112.69;5104176;28;20321;-61
2022/07/10 03:36:18;;;;;;;9.70;8.55;;;;;;;19.03;94.04;99112.22;5103667;28;20060;-61
2022/07/10 03:38:45;;;;;;;7.97;7.10;;;;;;;19.11;92.56;99115.19;5114344;28;20024;-61
2022/07/10 03:41:11;;;;;;;9.75;8.85;;;;;;;19.03;93.88;99112.22;5120949;28;20020;-62
2022/07/10 03:43:37;;;;;;;10.07;6.65;;;;;;;19.10;89.41;99110.88;5104111;28;20362;-61
2022/07/10 03:46:02;;;;;;;9.43;7.20;;;;;;;19.27;88.54;99119.44;5103829;28;20020;-61
2022/07/10 03:48:28;;;;;;;8.13;7.32;;;;;;;19.41;90.88;99121.97;5118216;28;20035;-62
2022/07/10 03:50:53;;;;;;;7.63;6.93;;;;;;;19.39;87.81;99129.09;5114827;28;20020;-62
2022/07/10 03:53:19;;;;;;;9.52;7.28;;;;;;;19.56;89.11;99116.63;5104013;28;20129;-62
2022/07/10 03:55:45;;;;;;;7.57;6.43;;;;;;;19.51;87.41;99126.59;5104166;28;20036;-62
2022/07/10 03:58:11;;;;;;;8.23;7.43;;;;;;;19.42;89.09;99128.88;5103629;28;20191;-61
2022/07/10 04:00:38;;;;;;;8.60;7.05;;;;;;;19.34;87.23;99132.97;5103402;28;20095;-61
2022/07/10 04:03:07;;;;;;;8.02;7.15;;;;;;;19.38;87.97;99119.56;5103650;28;20039;-62
2022/07/10 04:05:33;;;;;;;8.43;7.63;;;;;;;19.17;87.84;99113.94;5103719;28;20348;-61
2022/07/10 04:07:59;;;;;;;8.27;7.47;;;;;;;19.32;87.32;99106.81;5103397;28;20035;-61
2022/07/10 04:10:27;;;;;;;9.20;7.07;;;;;;;19.24;86.69;99102.09;5102926;28;20027;-61
2022/07/10 04:12:53;;;;;;;11.63;7.47;;;;;;;19.24;87.15;99093.34;5102697;28;20028;-61
2022/07/10 04:15:19;;;;;;;7.97;7.28;;;;;;;19.32;87.91;99080.56;5103368;28;20082;-62
2022/07/10 04:17:46;;;;;;;10.40;7.95;;;;;;;19.37;87.42;99072.38;5103207;28;20088;-61
2022/07/10 04:20:12;;;;;;;9.05;8.10;;;;;;;19.31;88.49;99063.97;5103282;28;20034;-61
2022/07/10 04:22:37;;;;;;;7.63;6.93;;;;;;;19.37;87.31;99067.09;5103450;28;20140;-62
2022/07/10 04:25:04;;;;;;;8.50;7.15;;;;;;;19.25;87.47;99053.03;5103351;28;20201;-62
2022/07/10 04:27:29;;;;;;;8.40;7.30;;;;;;;19.12;87.25;99026.78;5103150;28;20028;-61
2022/07/10 04:29:55;;;;;;;8.23;7.43;;;;;;;19.00;87.66;99010.09;5102999;28;20367;-61
2022/07/10 04:32:21;;;;;;;7.85;6.85;;;;;;;19.21;88.11;99009.56;5103410;28;20031;-63
2022/07/10 04:34:47;;;;;;;8.57;7.60;;;;;;;19.28;87.65;99021.31;5103436;28;20032;-62
2022/07/10 04:37:12;;;;;;;9.27;7.55;;;;;;;19.30;90.14;99038.66;5123395;28;20059;-63
2022/07/10 04:39:39;;;;;;;9.27;7.72;;;;;;;19.34;88.21;99028.78;5122178;28;20165;-62
2022/07/10 04:42:06;;;;;;;9.65;7.70;;;;;;;19.39;88.17;99034.56;5111591;28;20091;-62
2022/07/10 04:44:33;;;;;;;9.07;8.18;;;;;;;19.52;88.01;99039.81;5108938;28;20051;-62
2022/07/10 04:46:59;;;;;;;8.55;7.75;;;;;;;19.56;89.32;99027.31;5106769;28;20028;-62
2022/07/10 04:49:25;;;;;;;9.35;8.45;;;;;;;19.63;91.33;99032.03;5102692;28;20038;-62
2022/07/10 04:51:51;;;;;;;10.23;8.05;;;;;;;19.67;91.58;99032.66;5102791;28;20087;-62
2022/07/10 04:54:16;;;;;;;9.55;8.57;;;;;;;19.67;91.47;99022.16;5102906;28;20024;-62
2022/07/10 04:56:42;;;;;;;9.60;8.50;;;;;;;19.81;89.89;99014.16;5102887;28;20027;-63
2022/07/10 04:59:09;;;;;;;9.25;8.45;;;;;;;19.88;92.07;99024.22;5103124;28;20016;-62
2022/07/10 05:01:35;;;;;;;10.23;9.07;;;;;;;19.98;92.75;99020.00;5102961;28;20024;-62
2022/07/10 05:04:00;;;;;;;11.80;10.02;;;;;;;20.13;92.60;99028.59;5101622;28;20043;-62
2022/07/10 05:06:26;;;;;;;9.45;8.43;;;;;;;20.33;91.39;99035.88;5116288;28;20072;-62
2022/07/10 05:08:53;;;;;;;9.73;7.97;;;;;;;20.44;88.81;99043.00;5114932;28;20019;-62
2022/07/10 05:11:19;;;;;;;9.15;8.25;;;;;;;20.55;87.45;99044.84;5102836;28;20031;-62
2022/07/10 05:13:46;;;;;;;10.27;9.40;;;;;;;20.66;88.44;99041.41;5103055;28;20028;-62
2022/07/10 05:16:13;;;;;;;9.60;8.70;;;;;;;20.66;88.82;99031.75;5102863;28;20054;-62
2022/07/10 05:18:39;;;;;;;9.10;8.30;;;;;;;20.69;87.23;99030.69;5102703;28;20050;-62
2022/07/10 05:21:05;;;;;;;10.25;9.10;;;;;;;20.58;84.31;99028.84;5102682;28;20194;-62
2022/07/10 05:23:31;;;;;;;9.95;9.05;;;;;;;20.69;84.45;99020.16;5102657;28;20086;-62
2022/07/10 05:25:57;;;;;;;10.60;8.25;;;;;;;20.89;83.72;99020.47;5102074;28;20070;-62
2022/07/10 05:28:22;;;;;;;8.80;8.00;;;;;;;21.17;83.87;99008.69;5102738;28;20105;-62
2022/07/10 05:30:48;;;;;;;9.50;8.60;;;;;;;21.34;84.70;99023.19;5101862;28;20016;-62
2022/07/10 05:33:15;;;;;;;8.57;7.80;;;;;;;21.53;85.21;99026.13;5102779;28;20016;-62
2022/07/10 05:35:40;;;;;;;10.55;8.57;;;;;;;21.54;80.35;99034.88;5102107;28;20083;-62
2022/07/10 05:38:06;;;;;;;8.40;7.75;;;;;;;21.82;81.64;99040.59;5108163;28;20136;-62
2022/07/10 05:40:32;;;;;;;8.68;7.78;;;;;;;21.81;82.23;99046.84;5123063;28;20035;-62
2022/07/10 05:42:57;;;;;;;9.88;8.88;;;;;;;21.74;81.16;99049.13;5122972;28;20043;-62
2022/07/10 05:45:23;;;;;;;11.23;9.65;;;;;;;21.65;81.47;99052.50;5108583;28;20028;-61
2022/07/10 05:47:49;;;;;;;9.40;8.25;;;;;;;21.85;82.27;99061.47;5102695;28;20091;-62
2022/07/10 05:50:14;;;;;;;10.45;8.75;;;;;;;21.85;82.09;99051.75;5101758;28;20039;-62
2022/07/10 05:52:40;;;;;;;13.57;9.15;;;;;;;21.99;81.86;99055.09;5102451;28;20020;-62
2022/07/10 05:55:07;;;;;;;11.23;8.70;;;;;;;22.09;82.95;99045.50;5102315;28;20016;-62
2022/07/10 05:57:34;;;;;;;10.60;9.55;;;;;;;22.17;82.98;99045.72;5102350;28;20043;-62
2022/07/10 06:00:00;;;;;;;11.05;9.25;;;;;;;22.40;80.94;99061.53;5102350;28;20036;-62
2022/07/10 06:02:26;;;;;;;10.35;8.93;;;;;;;22.55;81.27;99059.47;5105710;28;20205;-61
2022/07/10 06:04:52;;;;;;;13.02;10.50;;;;;;;22.17;78.23;99029.88;5106310;28;20149;-61
2022/07/10 06:07:18;;;;;;;13.88;10.05;;;;;;;22.33;77.69;99060.34;5106063;28;20051;-61
2022/07/10 06:09:44;;;;;;;14.15;11.70;;;;;;;22.29;77.78;99059.75;5105405;28;20251;-61
2022/07/10 06:12:10;;;;;;;19.25;10.35;;;;;;;22.33;77.71;99066.47;5105424;28;20076;-62
2022/07/10 06:14:35;;;;;;;15.13;10.80;;;;;;;22.26;77.81;99060.00;5105669;28;20221;-62
2022/07/10 06:17:01;;;;;;;15.70;11.23;;;;;;;22.31;77.10;99055.16;5104960;28;20212;-61
2022/07/10 06:19:27;;;;;;;15.98;12.45;;;;;;;22.39;78.36;99054.59;5105654;28;20209;-62
2022/07/10 06:24:37;;;;;;;16.17;11.43;;;;;;;22.94;77.69;99049.19;5105610;28;20077;-63
2022/07/10 06:27:04;;;;;;;14.07;11.40;;;;;;;23.07;77.62;99049.00;5115053;28;20099;-62
2022/07/10 06:29:29;;;;;;;13.38;11.32;;;;;;;23.04;73.26;99044.81;5119772;28;20034;-63
2022/07/10 06:31:55;;;;;;;12.30;11.15;;;;;;;23.12;73.01;99043.41;5105198;28;20028;-62
2022/07/10 06:34:20;;;;;;;12.23;10.73;;;;;;;23.26;71.93;99043.91;5105368;28;20074;-63
2022/07/10 06:36:46;;;;;;;11.98;10.18;;;;;;;23.37;71.34;99040.34;5105278;28;20043;-62
2022/07/10 06:39:12;;;;;;;13.15;11.23;;;;;;;23.43;71.15;99039.81;5120248;28;20031;-62
2022/07/10 06:41:38;;;;;;;13.10;11.18;;;;;;;23.49;70.66;99038.44;5119689;28;20024;-62
2022/07/10 06:44:04;;;;;;;13.80;11.07;;;;;;;23.70;71.80;99045.47;5104768;28;20247;-62
2022/07/10 06:46:31;;;;;;;14.18;11.18;;;;;;;23.80;71.19;99043.75;5104926;28;20035;-62
2022/07/10 06:48:57;;;;;;;11.43;10.27;;;;;;;23.92;70.00;99049.78;5105281;28;20077;-62
2022/07/10 06:51:22;;;;;;;10.65;9.50;;;;;;;24.06;70.13;99038.81;5105215;28;20044;-63
2022/07/10 06:53:48;;;;;;;12.20;9.50;;;;;;;24.06;68.39;99045.94;5110401;28;20023;-62
2022/07/10 06:56:15;;;;;;;12.32;9.00;;;;;;;24.06;69.37;99048.59;5104893;28;20027;-62
2022/07/10 06:58:41;;;;;;;11.90;9.20;;;;;;;24.06;68.67;99048.59;5104859;28;20040;-62
2022/07/10 07:01:07;;;;;;;10.02;8.80;;;;;;;24.08;67.72;99051.91;5104985;28;20028;-62
2022/07/10 07:03:32;;;;;;;12.90;9.48;;;;;;;24.04;68.34;99043.44;5103495;28;20031;-62
2022/07/10 07:05:58;;;;;;;11.20;9.10;;;;;;;23.93;68.57;99031.13;5103424;28;20028;-62
2022/07/10 07:08:23;;;;;;;10.30;9.20;;;;;;;24.07;67.60;99050.25;5104617;28;20035;-62
2022/07/10 07:10:49;;;;;;;14.40;9.52;;;;;;;24.06;67.78;99051.22;5104672;28;20044;-62
2022/07/10 07:13:15;;;;;;;11.57;9.90;;;;;;;24.07;68.13;99047.59;5104585;28;20028;-62
2022/07/10 07:15:46;;;;;;;14.88;10.73;;;;;;;24.17;67.59;99045.84;5104386;28;20036;-62
2022/07/10 07:18:12;;;;;;;13.77;9.15;;;;;;;24.20;67.26;99045.56;5104234;28;20036;-62
2022/07/10 07:23:23;;;;;;;15.60;9.55;;;;;;;24.33;66.35;99037.34;5121199;28;20073;-63
2022/07/10 07:25:49;;;;;;;11.18;9.88;;;;;;;24.51;67.99;99053.38;5104586;28;20054;-62
2022/07/10 07:28:15;;;;;;;15.25;10.38;;;;;;;24.66;66.36;99048.56;5104288;28;20321;-62
2022/07/10 07:30:48;;;;;;;14.20;9.85;;;;;;;24.43;66.94;99043.50;5104008;28;20051;-62
2022/07/10 07:33:13;;;;;;;10.57;8.95;;;;;;;24.67;65.97;99054.69;5114779;28;20028;-62
2022/07/10 07:35:39;;;;;;;13.23;10.77;;;;;;;24.87;65.29;99051.06;5118706;28;20038;-62
2022/07/10 07:38:05;;;;;;;10.68;9.55;;;;;;;24.72;65.30;99044.53;5109321;28;20047;-62
2022/07/10 07:40:32;;;;;;;10.98;9.95;;;;;;;24.98;64.95;99052.72;5108646;28;20036;-63
2022/07/10 07:42:57;;;;;;;11.18;9.77;;;;;;;25.00;67.03;99045.47;5104323;28;20035;-62
2022/07/10 07:45:24;;;;;;;10.02;9.07;;;;;;;25.11;65.49;99055.06;5103875;28;20016;-62
2022/07/10 07:47:59;;;;;;;9.60;8.70;;;;;;;24.94;62.02;99046.03;5104224;28;20024;-63
2022/07/10 07:50:34;;;;;;;13.20;8.45;;;;;;;24.89;63.51;99043.81;5103736;28;20091;-63
2022/07/10 07:53:04;;;;;;;9.35;8.25;;;;;;;24.88;63.10;99054.53;5103534;28;20024;-63
2022/07/10 07:55:31;;;;;;;9.32;8.20;;;;;;;24.98;62.67;99053.56;5103797;28;20054;-63
2022/07/10 07:57:58;;;;;;;10.02;8.48;;;;;;;25.11;62.58;99047.97;5103718;28;20024;-65
2022/07/10 08:00:26;;;;;;;9.32;8.45;;;;;;;25.23;63.64;99037.22;5103324;28;20035;-63
2022/07/10 08:02:53;;;;;;;9.95;8.50;;;;;;;25.28;62.56;99049.06;5103501;28;20032;-63
2022/07/10 08:05:20;;;;;;;9.15;8.18;;;;;;;25.17;62.28;99043.91;5105999;28;20255;-63
2022/07/10 08:07:51;;;;;;;9.60;8.38;;;;;;;25.38;62.24;99045.56;5123170;28;20072;-63
2022/07/10 08:10:20;;;;;;;9.13;8.20;;;;;;;25.46;64.73;99040.38;5104779;28;20072;-63
2022/07/10 08:12:47;;;;;;;9.75;8.77;;;;;;;25.48;62.76;99041.06;5103526;28;20020;-63
2022/07/10 08:15:17;;;;;;;9.80;8.90;;;;;;;25.44;62.52;99023.75;5103480;28;20035;-62
2022/07/10 08:17:43;;;;;;;9.15;8.23;;;;;;;25.49;61.38;99040.09;5103115;28;20016;-62
2022/07/10 08:20:11;;;;;;;9.25;8.35;;;;;;;25.36;61.77;99005.13;5103035;28;20309;-62
2022/07/10 08:22:38;;;;;;;10.85;9.68;;;;;;;25.62;61.83;99050.38;5103255;28;20036;-63
2022/07/10 08:25:05;;;;;;;8.85;7.95;;;;;;;25.76;61.58;99047.22;5102843;28;20092;-63
2022/07/10 08:27:30;;;;;;;10.00;7.65;;;;;;;25.74;60.55;99045.72;5115653;28;20082;-63
2022/07/10 08:29:56;;;;;;;8.00;7.28;;;;;;;25.86;59.79;99051.69;5115662;27;20028;-63
2022/07/10 08:32:21;;;;;;;8.88;7.40;;;;;;;25.98;59.54;99030.09;5103130;28;20044;-63
2022/07/10 08:34:48;;;;;;;8.50;7.25;;;;;;;26.16;61.22;99042.59;5103399;28;20036;-63
2022/07/10 08:37:14;;;;;;;8.75;7.97;;;;;;;26.14;60.99;99044.59;5103255;28;20051;-63
2022/07/10 08:39:39;;;;;;;8.68;7.82;;;;;;;26.26;59.87;99046.03;5122057;28;20094;-63
2022/07/10 08:42:06;;;;;;;19.55;15.10;;;;;;;26.28;61.05;99025.47;5123331;28;20023;-63
2022/07/10 08:44:33;;;;;;;8.57;7.78;;;;;;;26.42;61.38;99041.88;5119194;28;20035;-63
2022/07/10 08:46:59;;;;;;;8.75;7.78;;;;;;;26.49;60.95;99034.97;5102923;28;20035;-63
2022/07/10 08:49:30;;;;;;;11.38;8.35;;;;;;;26.56;58.02;99033.38;5103029;28;20091;-63
2022/07/10 08:51:59;;;;;;;8.80;7.32;;;;;;;26.59;60.10;99030.41;5102670;28;20321;-63
2022/07/10 08:54:28;;;;;;;8.10;7.30;;;;;;;26.26;60.90;98989.44;5107226;28;20020;-63
2022/07/10 08:56:56;;;;;;;7.40;6.68;;;;;;;26.24;55.42;99029.41;5109754;28;20023;-63
2022/07/10 08:59:22;;;;;;;7.97;7.18;;;;;;;26.43;56.05;99030.28;5123245;28;20208;-63
2022/07/10 09:01:49;;;;;;;8.60;6.50;;;;;;;26.44;59.20;99029.28;5123169;28;20026;-63
2022/07/10 09:04:19;;;;;;;6.55;6.00;;;;;;;26.46;56.66;99033.44;5105036;28;20028;-63
2022/07/10 09:06:45;;;;;;;9.65;6.75;;;;;;;26.46;56.10;99029.97;5117154;28;20051;-63
2022/07/10 09:09:11;;;;;;;8.77;6.22;;;;;;;26.52;56.75;99027.53;5113753;28;20344;-63
2022/07/10 09:11:44;;;;;;;6.30;5.70;;;;;;;26.28;54.43;98990.13;5102214;28;20039;-63
2022/07/10 09:14:11;;;;;;;6.78;5.93;;;;;;;26.70;55.22;99022.22;5102657;28;20065;-63
2022/07/10 09:16:39;;;;;;;11.95;6.75;;;;;;;26.88;55.40;99021.41;5102513;28;20309;-65
2022/07/10 09:19:26;;;;;;;8.05;6.43;;;;;;;27.01;54.46;99027.13;5102457;28;20255;-62
2022/07/10 09:22:02;;;;;;;9.45;6.10;;;;;;;26.76;53.05;98999.53;5102497;28;20043;-62
2022/07/10 09:24:38;;;;;;;8.50;6.13;;;;;;;26.83;52.93;98983.81;5102578;28;20107;-62
2022/07/10 09:27:04;;;;;;;7.55;5.85;;;;;;;27.04;52.58;99016.19;5102614;28;20363;-63
2022/07/10 09:29:31;;;;;;;6.32;5.25;;;;;;;27.09;52.74;99018.38;5101206;28;20211;-62
2022/07/10 09:32:01;;;;;;;7.80;5.95;;;;;;;27.27;52.65;99013.00;5101140;28;20020;-62
2022/07/10 09:34:42;;;;;;;7.05;6.03;;;;;;;27.06;51.47;98972.69;5102520;28;20047;-62
2022/07/10 09:37:22;;;;;;;6.40;5.80;;;;;;;27.25;53.24;98991.06;5104553;28;20089;-62
2022/07/10 09:40:03;;;;;;;9.88;7.88;;;;;;;27.37;53.31;99003.13;5106276;28;20046;-62
2022/07/10 09:42:41;;;;;;;6.50;5.50;;;;;;;27.21;51.95;98969.28;5116734;28;20310;-63
2022/07/10 09:45:12;;;;;;;7.03;4.82;;;;;;;27.52;48.93;99008.69;5125487;28;20047;-62
2022/07/10 09:47:58;;;;;;;;;;;;;;;27.45;51.79;99004.16;5111076;28;20329;-62
2022/07/10 09:50:34;;;;;;;7.72;4.00;;;;;;;27.38;48.59;99010.13;5126333;28;19971;-61
2022/07/10 09:53:05;;;;;;;4.38;3.65;;;;;;;27.42;45.61;98999.16;5126909;28;20020;-62
2022/07/10 09:55:32;;;;;;;7.45;3.80;;;;;;;27.57;47.87;98999.41;5105993;28;20028;-63
2022/07/10 09:58:02;;;;;;;5.75;4.03;;;;;;;27.67;49.16;99014.25;5105742;28;20213;-63
2022/07/10 10:00:33;;;;;;;4.80;3.78;;;;;;;27.79;49.09;98997.97;5106157;28;20186;-63
2022/07/10 10:03:04;;;;;;;5.70;4.00;;;;;;;27.48;50.04;98956.81;5105974;28;20024;-63
2022/07/10 10:05:44;;;;;;;4.40;3.95;;;;;;;27.65;47.30;98968.34;5105854;28;20248;-62
2022/07/10 10:08:25;;;;;;;4.32;3.88;;;;;;;27.91;45.00;99002.03;5105903;28;20020;-62
2022/07/10 10:10:52;;;;;;;4.95;3.67;;;;;;;27.92;47.27;99003.69;5105808;28;20070;-63
2022/07/10 10:13:20;;;;;;;5.65;3.88;;;;;;;27.91;48.60;99004.69;5105713;28;20240;-63
2022/07/10 10:15:48;;;;;;;7.35;3.58;;;;;;;27.79;46.74;98976.69;5104230;28;20019;-62
2022/07/10 10:18:17;;;;;;;3.80;3.20;;;;;;;27.80;44.66;98984.50;5105765;28;20020;-63
2022/07/10 10:20:45;;;;;;;4.60;3.20;;;;;;;27.86;44.59;98977.72;5105438;28;20221;-63
2022/07/10 10:23:18;;;;;;;5.45;3.55;;;;;;;27.91;43.86;98991.38;5105924;28;20020;-63
2022/07/10 10:25:44;;;;;;;5.22;3.30;;;;;;;27.89;43.95;98986.22;5125868;28;20023;-63
2022/07/10 10:28:12;;;;;;;5.53;3.50;;;;;;;28.04;45.84;98977.63;5108998;28;20024;-63
2022/07/10 10:30:43;;;;;;;3.97;3.38;;;;;;;27.88;45.13;98949.13;5105397;28;20476;-63
2022/07/10 10:33:27;;;;;;;;;;;;;;;28.17;44.90;98980.66;5114474;28;20043;-63
2022/07/10 10:35:53;;;;;;;4.70;4.03;;;;;;;28.14;45.04;98972.16;5125650;28;19903;-63
2022/07/10 10:38:18;;;;;;;5.85;4.07;;;;;;;28.18;45.81;98978.84;5125877;28;20084;-63
2022/07/10 10:40:44;;;;;;;7.47;4.53;;;;;;;28.16;45.04;98972.81;5125493;28;20026;-63
2022/07/10 10:43:20;;;;;;;8.23;4.53;;;;;;;28.33;44.55;98974.53;5125516;28;20031;-63
2022/07/10 10:45:46;;;;;;;6.15;4.50;;;;;;;28.30;44.79;98972.16;5111734;27;20031;-63
2022/07/10 10:48:15;;;;;;;9.45;4.20;;;;;;;28.28;43.30;98976.84;5104291;28;20032;-63
2022/07/10 10:50:47;;;;;;;6.72;4.50;;;;;;;28.32;44.10;98975.53;5104733;28;20344;-63
2022/07/10 10:53:17;;;;;;;7.03;3.85;;;;;;;28.50;44.24;98974.53;5105066;28;20024;-64
2022/07/10 10:56:04;;;;;;;5.85;4.53;;;;;;;28.62;43.97;98972.38;5107472;28;20269;-63
2022/07/10 10:58:44;;;;;;;5.57;3.80;;;;;;;28.26;44.72;98924.72;5124374;28;20076;-61
2022/07/10 11:01:22;;;;;;;5.85;4.03;;;;;;;28.54;42.83;98973.19;5124690;28;20031;-62
2022/07/10 11:04:10;;;;;;;7.07;3.97;;;;;;;28.48;41.21;98966.69;5110700;28;20031;-62
2022/07/10 11:06:53;;;;;;;7.57;5.72;;;;;;;28.37;41.38;98927.88;5104395;28;20019;-62
2022/07/10 11:09:23;;;;;;;8.10;3.25;;;;;;;28.62;41.51;98964.38;5104680;28;20032;-63
2022/07/10 11:12:05;;;;;;;4.10;2.88;;;;;;;28.46;41.51;98933.22;5109774;28;20039;-62
2022/07/10 11:14:32;;;;;;;4.30;3.03;;;;;;;28.56;43.73;98958.72;5121938;28;20027;-63
2022/07/10 11:16:58;;;;;;;4.30;3.28;;;;;;;28.50;42.59;98958.53;5103199;28;20028;-62
2022/07/10 11:19:26;;;;;;;4.75;3.22;;;;;;;28.42;41.71;98954.06;5104360;28;20084;-59
2022/07/10 11:22:13;;;;;;;4.00;3.03;;;;;;;28.45;40.93;98959.03;5104115;28;20081;-59
2022/07/10 11:24:59;;;;;;;4.63;3.13;;;;;;;28.39;40.92;98944.56;5108847;28;20095;-59
2022/07/10 11:28:08;;;;;;;3.83;2.83;;;;;;;28.40;42.77;98964.03;5104154;28;20031;-60
2022/07/10 11:30:50;;;;;;;4.80;3.13;;;;;;;28.49;41.80;98964.84;5104080;28;20016;-59
2022/07/10 11:33:17;;;;;;;6.35;3.28;;;;;;;28.50;42.48;98963.88;5104102;28;20031;-60
2022/07/10 11:35:47;;;;;;;5.13;2.90;;;;;;;28.27;42.64;98969.84;5103530;28;20380;-59
2022/07/10 11:38:18;;;;;;;5.00;3.03;;;;;;;28.24;42.89;98972.84;5107872;28;20031;-59
2022/07/10 11:40:43;;;;;;;4.35;3.35;;;;;;;28.30;43.58;98984.66;5124010;28;20332;-59
2022/07/10 11:43:13;;;;;;;8.23;4.30;;;;;;;28.26;44.41;98978.00;5108121;28;20058;-59